sensor_id;sensor_type;location;lat;lon;timestamp;P1;durP1;ratioP1;P2;durP2;ratioP2
15307;SDS011;7755;52.208;6.964;2022-07-29T00:03:40;2.27;;;1.70;;
15307;SDS011;7755;52.208;6.964;2022-07-29T00:07:43;3.73;;;1.83;;
15307;SDS011;7755;52.208;6.964;2022-07-29T00:11:45;1.57;;;1.47;;
15307;SDS011;7755;52.208;6.964;2022-07-29T00:15:47;1.97;;;1.77;;
15307;SDS011;7755;52.208;6.964;2022-07-29T00:19:49;3.70;;;1.93;;
15307;SDS011;7755;52.208;6.964;2022-07-29T00:23:52;2.10;;;1.90;;
15307;SDS011;7755;52.208;6.964;2022-07-29T00:27:54;2.43;;;2.13;;
15307;SDS011;7755;52.208;6.964;2022-07-29T00:31:56;3.03;;;2.10;;
15307;SDS011;7755;52.208;6.964;2022-07-29T00:35:58;2.30;;;2.10;;
15307;SDS011;7755;52.208;6.964;2022-07-29T00:40:01;2.43;;;1.70;;
15307;SDS011;7755;52.208;6.964;2022-07-29T00:44:03;2.17;;;1.90;;
15307;SDS011;7755;52.208;6.964;2022-07-29T00:48:05;2.33;;;2.13;;
15307;SDS011;7755;52.208;6.964;2022-07-29T00:52:09;2.00;;;1.90;;
15307;SDS011;7755;52.208;6.964;2022-07-29T00:56:13;3.77;;;2.10;;
15307;SDS011;7755;52.208;6.964;2022-07-29T01:00:16;2.10;;;1.90;;
15307;SDS011;7755;52.208;6.964;2022-07-29T01:04:20;2.30;;;2.00;;
15307;SDS011;7755;52.208;6.964;2022-07-29T01:08:22;2.10;;;2.00;;
15307;SDS011;7755;52.208;6.964;2022-07-29T01:12:26;2.30;;;2.10;;
15307;SDS011;7755;52.208;6.964;2022-07-29T01:16:30;4.27;;;2.23;;
15307;SDS011;7755;52.208;6.964;2022-07-29T01:20:41;2.83;;;2.13;;
15307;SDS011;7755;52.208;6.964;2022-07-29T01:29:48;3.53;;;1.87;;
15307;SDS011;7755;52.208;6.964;2022-07-29T01:33:55;3.10;;;2.20;;
15307;SDS011;7755;52.208;6.964;2022-07-29T01:38:01;3.27;;;2.27;;
15307;SDS011;7755;52.208;6.964;2022-07-29T01:42:11;2.27;;;2.07;;
15307;SDS011;7755;52.208;6.964;2022-07-29T01:46:19;2.87;;;2.60;;
15307;SDS011;7755;52.208;6.964;2022-07-29T01:50:28;2.40;;;2.20;;
15307;SDS011;7755;52.208;6.964;2022-07-29T01:54:35;2.30;;;2.10;;
15307;SDS011;7755;52.208;6.964;2022-07-29T01:58:40;2.33;;;2.13;;
15307;SDS011;7755;52.208;6.964;2022-07-29T02:02:46;3.37;;;2.40;;
15307;SDS011;7755;52.208;6.964;2022-07-29T02:06:50;2.50;;;2.30;;
15307;SDS011;7755;52.208;6.964;2022-07-29T02:10:54;2.50;;;2.30;;
15307;SDS011;7755;52.208;6.964;2022-07-29T02:14:57;2.23;;;2.10;;
15307;SDS011;7755;52.208;6.964;2022-07-29T02:19:03;2.27;;;2.07;;
15307;SDS011;7755;52.208;6.964;2022-07-29T02:23:07;2.90;;;2.40;;
15307;SDS011;7755;52.208;6.964;2022-07-29T02:27:11;2.50;;;2.30;;
15307;SDS011;7755;52.208;6.964;2022-07-29T02:31:14;2.70;;;2.50;;
15307;SDS011;7755;52.208;6.964;2022-07-29T02:35:20;3.20;;;2.20;;
15307;SDS011;7755;52.208;6.964;2022-07-29T02:39:23;2.70;;;2.30;;
15307;SDS011;7755;52.208;6.964;2022-07-29T02:43:27;3.83;;;2.20;;
15307;SDS011;7755;52.208;6.964;2022-07-29T02:47:33;2.23;;;2.13;;
15307;SDS011;7755;52.208;6.964;2022-07-29T02:51:41;2.80;;;2.37;;
15307;SDS011;7755;52.208;6.964;2022-07-29T02:55:48;2.03;;;1.93;;
15307;SDS011;7755;52.208;6.964;2022-07-29T02:59:57;3.20;;;2.60;;
15307;SDS011;7755;52.208;6.964;2022-07-29T03:04:04;3.63;;;2.97;;
15307;SDS011;7755;52.208;6.964;2022-07-29T03:08:08;4.47;;;2.37;;
15307;SDS011;7755;52.208;6.964;2022-07-29T03:12:11;2.63;;;2.43;;
15307;SDS011;7755;52.208;6.964;2022-07-29T03:16:15;2.53;;;2.30;;
15307;SDS011;7755;52.208;6.964;2022-07-29T03:20:17;2.97;;;2.30;;
15307;SDS011;7755;52.208;6.964;2022-07-29T03:24:28;2.83;;;2.63;;
15307;SDS011;7755;52.208;6.964;2022-07-29T03:28:31;2.87;;;2.40;;
15307;SDS011;7755;52.208;6.964;2022-07-29T03:32:33;2.60;;;2.40;;
15307;SDS011;7755;52.208;6.964;2022-07-29T03:36:35;2.93;;;2.30;;
15307;SDS011;7755;52.208;6.964;2022-07-29T03:40:40;2.40;;;2.20;;
15307;SDS011;7755;52.208;6.964;2022-07-29T03:44:47;2.60;;;2.40;;
15307;SDS011;7755;52.208;6.964;2022-07-29T03:48:52;3.17;;;2.20;;
15307;SDS011;7755;52.208;6.964;2022-07-29T03:52:58;4.63;;;2.60;;
15307;SDS011;7755;52.208;6.964;2022-07-29T03:57:02;2.73;;;2.23;;
15307;SDS011;7755;52.208;6.964;2022-07-29T04:01:06;2.57;;;2.30;;
15307;SDS011;7755;52.208;6.964;2022-07-29T04:05:11;2.50;;;2.20;;
15307;SDS011;7755;52.208;6.964;2022-07-29T04:09:14;3.10;;;2.90;;
15307;SDS011;7755;52.208;6.964;2022-07-29T04:13:17;2.53;;;2.33;;
15307;SDS011;7755;52.208;6.964;2022-07-29T04:17:19;3.00;;;2.80;;
15307;SDS011;7755;52.208;6.964;2022-07-29T04:21:21;4.43;;;2.70;;
15307;SDS011;7755;52.208;6.964;2022-07-29T04:25:23;2.73;;;2.53;;
15307;SDS011;7755;52.208;6.964;2022-07-29T04:29:27;2.93;;;2.70;;
15307;SDS011;7755;52.208;6.964;2022-07-29T04:33:29;3.13;;;2.50;;
15307;SDS011;7755;52.208;6.964;2022-07-29T04:37:31;2.70;;;2.50;;
15307;SDS011;7755;52.208;6.964;2022-07-29T04:41:33;3.00;;;2.20;;
15307;SDS011;7755;52.208;6.964;2022-07-29T04:45:36;2.47;;;2.30;;
15307;SDS011;7755;52.208;6.964;2022-07-29T04:49:38;2.83;;;2.53;;
15307;SDS011;7755;52.208;6.964;2022-07-29T04:53:40;3.57;;;2.87;;
15307;SDS011;7755;52.208;6.964;2022-07-29T04:57:41;4.30;;;3.13;;
15307;SDS011;7755;52.208;6.964;2022-07-29T05:01:45;2.97;;;2.57;;
15307;SDS011;7755;52.208;6.964;2022-07-29T05:05:46;3.13;;;2.87;;
15307;SDS011;7755;52.208;6.964;2022-07-29T05:09:48;3.63;;;3.13;;
15307;SDS011;7755;52.208;6.964;2022-07-29T05:13:50;3.13;;;2.70;;
15307;SDS011;7755;52.208;6.964;2022-07-29T05:17:53;3.70;;;2.60;;
15307;SDS011;7755;52.208;6.964;2022-07-29T05:21:55;2.77;;;2.53;;
15307;SDS011;7755;52.208;6.964;2022-07-29T05:25:57;2.63;;;2.40;;
15307;SDS011;7755;52.208;6.964;2022-07-29T05:29:59;4.33;;;3.20;;
15307;SDS011;7755;52.208;6.964;2022-07-29T05:34:02;3.73;;;2.60;;
15307;SDS011;7755;52.208;6.964;2022-07-29T05:38:04;3.87;;;3.03;;
15307;SDS011;7755;52.208;6.964;2022-07-29T05:42:07;2.93;;;2.60;;
15307;SDS011;7755;52.208;6.964;2022-07-29T05:46:10;2.90;;;2.57;;
15307;SDS011;7755;52.208;6.964;2022-07-29T05:50:15;3.63;;;2.47;;
15307;SDS011;7755;52.208;6.964;2022-07-29T05:54:17;2.93;;;2.70;;
15307;SDS011;7755;52.208;6.964;2022-07-29T05:58:19;2.67;;;2.57;;
15307;SDS011;7755;52.208;6.964;2022-07-29T06:02:21;3.20;;;2.90;;
15307;SDS011;7755;52.208;6.964;2022-07-29T06:06:24;5.37;;;3.13;;
15307;SDS011;7755;52.208;6.964;2022-07-29T06:10:26;2.60;;;2.40;;
15307;SDS011;7755;52.208;6.964;2022-07-29T06:14:28;3.07;;;2.83;;
15307;SDS011;7755;52.208;6.964;2022-07-29T06:18:30;2.53;;;2.33;;
15307;SDS011;7755;52.208;6.964;2022-07-29T06:22:33;3.20;;;2.90;;
15307;SDS011;7755;52.208;6.964;2022-07-29T06:26:35;3.83;;;2.97;;
15307;SDS011;7755;52.208;6.964;2022-07-29T06:30:36;3.27;;;2.97;;
15307;SDS011;7755;52.208;6.964;2022-07-29T06:34:38;3.07;;;2.70;;
15307;SDS011;7755;52.208;6.964;2022-07-29T06:38:42;3.00;;;2.80;;
15307;SDS011;7755;52.208;6.964;2022-07-29T06:42:43;3.43;;;3.13;;
15307;SDS011;7755;52.208;6.964;2022-07-29T06:46:45;3.23;;;2.67;;
15307;SDS011;7755;52.208;6.964;2022-07-29T06:50:49;3.73;;;3.43;;
15307;SDS011;7755;52.208;6.964;2022-07-29T06:54:52;6.43;;;3.50;;
15307;SDS011;7755;52.208;6.964;2022-07-29T06:58:55;3.07;;;2.87;;
15307;SDS011;7755;52.208;6.964;2022-07-29T07:02:57;6.83;;;3.73;;
15307;SDS011;7755;52.208;6.964;2022-07-29T07:06:58;8.37;;;3.97;;
15307;SDS011;7755;52.208;6.964;2022-07-29T07:11:01;4.80;;;3.70;;
15307;SDS011;7755;52.208;6.964;2022-07-29T07:15:04;5.37;;;3.47;;
15307;SDS011;7755;52.208;6.964;2022-07-29T07:19:07;5.53;;;3.87;;
15307;SDS011;7755;52.208;6.964;2022-07-29T07:23:09;4.40;;;3.83;;
15307;SDS011;7755;52.208;6.964;2022-07-29T07:27:13;4.40;;;3.70;;
15307;SDS011;7755;52.208;6.964;2022-07-29T07:31:15;4.07;;;3.77;;
15307;SDS011;7755;52.208;6.964;2022-07-29T07:35:17;6.60;;;4.00;;
15307;SDS011;7755;52.208;6.964;2022-07-29T07:39:20;3.53;;;3.23;;
15307;SDS011;7755;52.208;6.964;2022-07-29T07:43:23;5.63;;;3.87;;
15307;SDS011;7755;52.208;6.964;2022-07-29T07:47:25;4.43;;;3.87;;
15307;SDS011;7755;52.208;6.964;2022-07-29T07:51:26;5.77;;;3.93;;
15307;SDS011;7755;52.208;6.964;2022-07-29T07:55:28;6.13;;;4.00;;
15307;SDS011;7755;52.208;6.964;2022-07-29T07:59:31;4.87;;;3.87;;
15307;SDS011;7755;52.208;6.964;2022-07-29T08:03:33;3.97;;;3.67;;
15307;SDS011;7755;52.208;6.964;2022-07-29T08:07:35;5.27;;;3.93;;
15307;SDS011;7755;52.208;6.964;2022-07-29T08:11:37;5.47;;;3.80;;
15307;SDS011;7755;52.208;6.964;2022-07-29T08:15:40;4.17;;;3.87;;
15307;SDS011;7755;52.208;6.964;2022-07-29T08:19:43;7.13;;;5.03;;
15307;SDS011;7755;52.208;6.964;2022-07-29T08:23:45;4.80;;;4.10;;
15307;SDS011;7755;52.208;6.964;2022-07-29T08:27:49;4.80;;;4.27;;
15307;SDS011;7755;52.208;6.964;2022-07-29T08:31:52;4.70;;;4.23;;
15307;SDS011;7755;52.208;6.964;2022-07-29T08:35:54;5.00;;;4.00;;
15307;SDS011;7755;52.208;6.964;2022-07-29T08:39:57;5.10;;;4.60;;
15307;SDS011;7755;52.208;6.964;2022-07-29T08:44:00;3.83;;;3.57;;
15307;SDS011;7755;52.208;6.964;2022-07-29T08:48:04;6.70;;;3.47;;
15307;SDS011;7755;52.208;6.964;2022-07-29T08:52:08;4.97;;;3.83;;
15307;SDS011;7755;52.208;6.964;2022-07-29T08:56:12;4.60;;;3.93;;
15307;SDS011;7755;52.208;6.964;2022-07-29T09:00:14;5.23;;;4.10;;
15307;SDS011;7755;52.208;6.964;2022-07-29T09:04:18;4.10;;;3.70;;
15307;SDS011;7755;52.208;6.964;2022-07-29T09:08:21;4.23;;;3.83;;
15307;SDS011;7755;52.208;6.964;2022-07-29T09:12:24;5.50;;;4.30;;
15307;SDS011;7755;52.208;6.964;2022-07-29T09:16:26;5.33;;;3.97;;
15307;SDS011;7755;52.208;6.964;2022-07-29T09:20:49;4.77;;;3.97;;
15307;SDS011;7755;52.208;6.964;2022-07-29T09:25:11;5.30;;;4.37;;
15307;SDS011;7755;52.208;6.964;2022-07-29T09:29:14;4.87;;;4.47;;
15307;SDS011;7755;52.208;6.964;2022-07-29T09:33:17;4.93;;;4.20;;
15307;SDS011;7755;52.208;6.964;2022-07-29T09:37:27;5.17;;;4.63;;
15307;SDS011;7755;52.208;6.964;2022-07-29T09:41:30;4.90;;;4.50;;
15307;SDS011;7755;52.208;6.964;2022-07-29T09:45:46;8.20;;;5.03;;
15307;SDS011;7755;52.208;6.964;2022-07-29T09:49:53;4.70;;;4.30;;
15307;SDS011;7755;52.208;6.964;2022-07-29T09:53:59;5.93;;;5.33;;
15307;SDS011;7755;52.208;6.964;2022-07-29T09:58:16;6.60;;;5.27;;
15307;SDS011;7755;52.208;6.964;2022-07-29T10:02:19;6.90;;;6.20;;
15307;SDS011;7755;52.208;6.964;2022-07-29T10:06:21;6.10;;;5.50;;
15307;SDS011;7755;52.208;6.964;2022-07-29T10:10:25;5.93;;;4.93;;
15307;SDS011;7755;52.208;6.964;2022-07-29T10:14:29;6.30;;;5.40;;
15307;SDS011;7755;52.208;6.964;2022-07-29T10:18:32;6.57;;;5.87;;
15307;SDS011;7755;52.208;6.964;2022-07-29T10:22:33;5.67;;;5.07;;
15307;SDS011;7755;52.208;6.964;2022-07-29T10:26:37;5.97;;;5.37;;
15307;SDS011;7755;52.208;6.964;2022-07-29T10:30:41;9.57;;;6.93;;
15307;SDS011;7755;52.208;6.964;2022-07-29T10:34:50;6.67;;;5.57;;
15307;SDS011;7755;52.208;6.964;2022-07-29T10:39:17;7.13;;;6.33;;
15307;SDS011;7755;52.208;6.964;2022-07-29T10:43:29;7.70;;;5.97;;
15307;SDS011;7755;52.208;6.964;2022-07-29T10:47:36;5.30;;;4.80;;
15307;SDS011;7755;52.208;6.964;2022-07-29T10:51:51;7.10;;;6.10;;
15307;SDS011;7755;52.208;6.964;2022-07-29T10:55:54;8.57;;;6.57;;
15307;SDS011;7755;52.208;6.964;2022-07-29T11:09:17;7.83;;;5.70;;
15307;SDS011;7755;52.208;6.964;2022-07-29T11:18:08;7.40;;;5.60;;
15307;SDS011;7755;52.208;6.964;2022-07-29T11:22:10;6.43;;;5.83;;
15307;SDS011;7755;52.208;6.964;2022-07-29T11:26:16;5.47;;;4.97;;
15307;SDS011;7755;52.208;6.964;2022-07-29T11:30:21;5.70;;;5.20;;
15307;SDS011;7755;52.208;6.964;2022-07-29T11:35:10;6.07;;;5.30;;
15307;SDS011;7755;52.208;6.964;2022-07-29T11:39:25;6.30;;;5.70;;
15307;SDS011;7755;52.208;6.964;2022-07-29T11:47:49;6.30;;;5.70;;
15307;SDS011;7755;52.208;6.964;2022-07-29T11:51:55;5.43;;;5.00;;
15307;SDS011;7755;52.208;6.964;2022-07-29T11:56:01;6.47;;;5.87;;
15307;SDS011;7755;52.208;6.964;2022-07-29T12:00:03;7.53;;;5.60;;
15307;SDS011;7755;52.208;6.964;2022-07-29T12:04:08;7.20;;;6.47;;
15307;SDS011;7755;52.208;6.964;2022-07-29T12:08:12;6.20;;;5.07;;
15307;SDS011;7755;52.208;6.964;2022-07-29T12:12:16;6.10;;;5.50;;
15307;SDS011;7755;52.208;6.964;2022-07-29T12:16:18;6.47;;;5.90;;
15307;SDS011;7755;52.208;6.964;2022-07-29T12:20:24;7.10;;;6.00;;
15307;SDS011;7755;52.208;6.964;2022-07-29T12:24:29;7.10;;;6.17;;
15307;SDS011;7755;52.208;6.964;2022-07-29T12:28:43;6.23;;;5.63;;
15307;SDS011;7755;52.208;6.964;2022-07-29T12:32:46;6.57;;;5.97;;
15307;SDS011;7755;52.208;6.964;2022-07-29T12:36:49;9.33;;;6.23;;
15307;SDS011;7755;52.208;6.964;2022-07-29T12:40:53;6.33;;;5.70;;
15307;SDS011;7755;52.208;6.964;2022-07-29T12:44:55;6.27;;;5.67;;
15307;SDS011;7755;52.208;6.964;2022-07-29T12:48:57;7.27;;;6.17;;
15307;SDS011;7755;52.208;6.964;2022-07-29T12:53:09;6.53;;;5.77;;
15307;SDS011;7755;52.208;6.964;2022-07-29T12:57:14;8.07;;;5.10;;
15307;SDS011;7755;52.208;6.964;2022-07-29T13:01:16;7.00;;;4.80;;
15307;SDS011;7755;52.208;6.964;2022-07-29T13:05:20;5.90;;;5.30;;
15307;SDS011;7755;52.208;6.964;2022-07-29T13:09:22;6.40;;;4.50;;
15307;SDS011;7755;52.208;6.964;2022-07-29T13:13:25;3.80;;;3.50;;
15307;SDS011;7755;52.208;6.964;2022-07-29T13:17:27;4.57;;;4.13;;
15307;SDS011;7755;52.208;6.964;2022-07-29T13:21:29;5.50;;;4.53;;
15307;SDS011;7755;52.208;6.964;2022-07-29T13:25:31;3.97;;;3.57;;
15307;SDS011;7755;52.208;6.964;2022-07-29T13:29:35;4.07;;;3.67;;
15307;SDS011;7755;52.208;6.964;2022-07-29T13:33:40;5.10;;;4.13;;
15307;SDS011;7755;52.208;6.964;2022-07-29T13:37:42;5.33;;;3.80;;
15307;SDS011;7755;52.208;6.964;2022-07-29T13:41:44;3.80;;;3.40;;
15307;SDS011;7755;52.208;6.964;2022-07-29T13:45:47;4.50;;;4.07;;
15307;SDS011;7755;52.208;6.964;2022-07-29T13:49:49;4.10;;;3.63;;
15307;SDS011;7755;52.208;6.964;2022-07-29T13:53:51;5.83;;;4.33;;
15307;SDS011;7755;52.208;6.964;2022-07-29T13:57:54;3.60;;;3.30;;
15307;SDS011;7755;52.208;6.964;2022-07-29T14:01:58;4.77;;;3.80;;
15307;SDS011;7755;52.208;6.964;2022-07-29T14:05:59;4.33;;;3.53;;
15307;SDS011;7755;52.208;6.964;2022-07-29T14:10:01;6.17;;;3.90;;
15307;SDS011;7755;52.208;6.964;2022-07-29T14:14:04;5.83;;;3.43;;
15307;SDS011;7755;52.208;6.964;2022-07-29T14:18:07;3.87;;;3.57;;
15307;SDS011;7755;52.208;6.964;2022-07-29T14:22:09;3.47;;;3.17;;
15307;SDS011;7755;52.208;6.964;2022-07-29T14:26:11;4.80;;;4.13;;
15307;SDS011;7755;52.208;6.964;2022-07-29T14:30:13;3.83;;;3.27;;
15307;SDS011;7755;52.208;6.964;2022-07-29T14:34:16;5.07;;;3.70;;
15307;SDS011;7755;52.208;6.964;2022-07-29T14:38:18;5.03;;;3.53;;
15307;SDS011;7755;52.208;6.964;2022-07-29T14:42:20;5.67;;;4.07;;
15307;SDS011;7755;52.208;6.964;2022-07-29T14:46:22;4.63;;;4.17;;
15307;SDS011;7755;52.208;6.964;2022-07-29T14:50:25;5.57;;;4.03;;
15307;SDS011;7755;52.208;6.964;2022-07-29T14:54:27;7.10;;;4.00;;
15307;SDS011;7755;52.208;6.964;2022-07-29T14:58:29;5.33;;;3.60;;
15307;SDS011;7755;52.208;6.964;2022-07-29T15:02:31;4.60;;;3.90;;
15307;SDS011;7755;52.208;6.964;2022-07-29T15:06:34;4.00;;;3.57;;
15307;SDS011;7755;52.208;6.964;2022-07-29T15:10:36;4.47;;;3.20;;
15307;SDS011;7755;52.208;6.964;2022-07-29T15:14:38;3.23;;;2.93;;
15307;SDS011;7755;52.208;6.964;2022-07-29T15:18:40;3.43;;;3.03;;
15307;SDS011;7755;52.208;6.964;2022-07-29T15:22:43;4.30;;;2.90;;
15307;SDS011;7755;52.208;6.964;2022-07-29T15:26:45;3.87;;;3.43;;
15307;SDS011;7755;52.208;6.964;2022-07-29T15:30:48;3.23;;;2.87;;
15307;SDS011;7755;52.208;6.964;2022-07-29T15:34:49;4.13;;;2.93;;
15307;SDS011;7755;52.208;6.964;2022-07-29T15:38:53;3.83;;;3.17;;
15307;SDS011;7755;52.208;6.964;2022-07-29T15:42:55;4.07;;;2.90;;
15307;SDS011;7755;52.208;6.964;2022-07-29T15:46:57;5.03;;;2.83;;
15307;SDS011;7755;52.208;6.964;2022-07-29T15:51:06;4.63;;;2.67;;
15307;SDS011;7755;52.208;6.964;2022-07-29T15:55:09;4.00;;;2.30;;
15307;SDS011;7755;52.208;6.964;2022-07-29T15:59:11;3.30;;;2.43;;
15307;SDS011;7755;52.208;6.964;2022-07-29T16:03:14;2.97;;;2.60;;
15307;SDS011;7755;52.208;6.964;2022-07-29T16:07:16;3.00;;;2.70;;
15307;SDS011;7755;52.208;6.964;2022-07-29T16:11:19;3.20;;;2.90;;
15307;SDS011;7755;52.208;6.964;2022-07-29T16:15:21;4.27;;;3.30;;
15307;SDS011;7755;52.208;6.964;2022-07-29T16:19:23;3.73;;;2.80;;
15307;SDS011;7755;52.208;6.964;2022-07-29T16:23:25;3.80;;;2.40;;
15307;SDS011;7755;52.208;6.964;2022-07-29T16:27:28;3.90;;;2.97;;
15307;SDS011;7755;52.208;6.964;2022-07-29T16:31:30;6.40;;;3.13;;
15307;SDS011;7755;52.208;6.964;2022-07-29T16:35:32;6.00;;;3.67;;
15307;SDS011;7755;52.208;6.964;2022-07-29T16:39:36;2.93;;;2.53;;
15307;SDS011;7755;52.208;6.964;2022-07-29T16:43:39;4.07;;;2.60;;
15307;SDS011;7755;52.208;6.964;2022-07-29T16:47:43;4.67;;;3.00;;
15307;SDS011;7755;52.208;6.964;2022-07-29T16:51:45;3.87;;;2.80;;
15307;SDS011;7755;52.208;6.964;2022-07-29T16:55:47;3.17;;;2.70;;
15307;SDS011;7755;52.208;6.964;2022-07-29T16:59:50;3.33;;;2.63;;
15307;SDS011;7755;52.208;6.964;2022-07-29T17:03:52;3.93;;;2.87;;
15307;SDS011;7755;52.208;6.964;2022-07-29T17:08:06;4.90;;;2.97;;
15307;SDS011;7755;52.208;6.964;2022-07-29T17:12:08;7.43;;;2.63;;
15307;SDS011;7755;52.208;6.964;2022-07-29T17:16:11;3.43;;;2.80;;
15307;SDS011;7755;52.208;6.964;2022-07-29T17:20:13;4.40;;;2.70;;
15307;SDS011;7755;52.208;6.964;2022-07-29T17:24:15;4.27;;;2.80;;
15307;SDS011;7755;52.208;6.964;2022-07-29T17:28:17;3.10;;;2.80;;
15307;SDS011;7755;52.208;6.964;2022-07-29T17:32:20;3.03;;;2.80;;
15307;SDS011;7755;52.208;6.964;2022-07-29T17:36:22;4.30;;;2.47;;
15307;SDS011;7755;52.208;6.964;2022-07-29T17:40:24;3.70;;;2.80;;
15307;SDS011;7755;52.208;6.964;2022-07-29T17:44:26;4.83;;;3.37;;
15307;SDS011;7755;52.208;6.964;2022-07-29T17:48:30;4.47;;;2.77;;
15307;SDS011;7755;52.208;6.964;2022-07-29T17:52:31;4.90;;;3.80;;
15307;SDS011;7755;52.208;6.964;2022-07-29T17:56:33;6.03;;;3.67;;
15307;SDS011;7755;52.208;6.964;2022-07-29T18:00:35;4.30;;;3.20;;
15307;SDS011;7755;52.208;6.964;2022-07-29T18:04:38;3.80;;;3.10;;
15307;SDS011;7755;52.208;6.964;2022-07-29T18:08:40;4.70;;;3.13;;
15307;SDS011;7755;52.208;6.964;2022-07-29T18:12:48;3.80;;;2.80;;
15307;SDS011;7755;52.208;6.964;2022-07-29T18:16:50;5.47;;;3.13;;
15307;SDS011;7755;52.208;6.964;2022-07-29T18:20:54;2.93;;;2.60;;
15307;SDS011;7755;52.208;6.964;2022-07-29T18:24:55;3.70;;;3.07;;
15307;SDS011;7755;52.208;6.964;2022-07-29T18:28:57;3.47;;;3.20;;
15307;SDS011;7755;52.208;6.964;2022-07-29T18:32:59;3.27;;;3.07;;
15307;SDS011;7755;52.208;6.964;2022-07-29T18:37:02;4.23;;;3.47;;
15307;SDS011;7755;52.208;6.964;2022-07-29T18:41:04;3.43;;;2.90;;
15307;SDS011;7755;52.208;6.964;2022-07-29T18:45:06;5.60;;;4.30;;
15307;SDS011;7755;52.208;6.964;2022-07-29T18:49:09;5.60;;;4.03;;
15307;SDS011;7755;52.208;6.964;2022-07-29T18:53:12;3.57;;;3.27;;
15307;SDS011;7755;52.208;6.964;2022-07-29T18:57:14;4.67;;;3.30;;
15307;SDS011;7755;52.208;6.964;2022-07-29T19:01:16;5.00;;;3.13;;
15307;SDS011;7755;52.208;6.964;2022-07-29T19:05:18;4.37;;;3.00;;
15307;SDS011;7755;52.208;6.964;2022-07-29T19:09:22;3.37;;;2.80;;
15307;SDS011;7755;52.208;6.964;2022-07-29T19:13:23;3.40;;;3.10;;
15307;SDS011;7755;52.208;6.964;2022-07-29T19:17:25;4.10;;;3.70;;
15307;SDS011;7755;52.208;6.964;2022-07-29T19:21:27;4.13;;;3.73;;
15307;SDS011;7755;52.208;6.964;2022-07-29T19:25:31;4.97;;;3.67;;
15307;SDS011;7755;52.208;6.964;2022-07-29T19:29:33;3.57;;;3.27;;
15307;SDS011;7755;52.208;6.964;2022-07-29T19:33:34;3.50;;;3.20;;
15307;SDS011;7755;52.208;6.964;2022-07-29T19:37:36;3.87;;;3.30;;
15307;SDS011;7755;52.208;6.964;2022-07-29T19:41:39;4.60;;;3.10;;
15307;SDS011;7755;52.208;6.964;2022-07-29T19:45:41;4.00;;;3.27;;
15307;SDS011;7755;52.208;6.964;2022-07-29T19:49:43;3.30;;;3.00;;
15307;SDS011;7755;52.208;6.964;2022-07-29T19:53:45;3.30;;;3.00;;
15307;SDS011;7755;52.208;6.964;2022-07-29T19:57:48;4.83;;;3.30;;
15307;SDS011;7755;52.208;6.964;2022-07-29T20:01:51;4.27;;;3.93;;
15307;SDS011;7755;52.208;6.964;2022-07-29T20:05:53;4.40;;;4.10;;
15307;SDS011;7755;52.208;6.964;2022-07-29T20:09:55;4.27;;;3.97;;
15307;SDS011;7755;52.208;6.964;2022-07-29T20:13:58;3.73;;;3.43;;
15307;SDS011;7755;52.208;6.964;2022-07-29T20:18:01;5.97;;;3.60;;
15307;SDS011;7755;52.208;6.964;2022-07-29T20:22:03;4.33;;;3.93;;
15307;SDS011;7755;52.208;6.964;2022-07-29T20:26:06;5.60;;;4.67;;
15307;SDS011;7755;52.208;6.964;2022-07-29T20:30:09;7.10;;;6.60;;
15307;SDS011;7755;52.208;6.964;2022-07-29T20:34:13;8.10;;;7.40;;
15307;SDS011;7755;52.208;6.964;2022-07-29T20:38:16;8.57;;;7.77;;
15307;SDS011;7755;52.208;6.964;2022-07-29T20:42:17;7.73;;;5.90;;
15307;SDS011;7755;52.208;6.964;2022-07-29T20:46:21;5.30;;;4.80;;
15307;SDS011;7755;52.208;6.964;2022-07-29T20:50:23;4.40;;;4.10;;
15307;SDS011;7755;52.208;6.964;2022-07-29T20:54:25;4.97;;;4.50;;
15307;SDS011;7755;52.208;6.964;2022-07-29T20:58:26;5.17;;;4.77;;
15307;SDS011;7755;52.208;6.964;2022-07-29T21:02:30;6.60;;;6.00;;
15307;SDS011;7755;52.208;6.964;2022-07-29T21:06:32;5.30;;;4.80;;
15307;SDS011;7755;52.208;6.964;2022-07-29T21:10:34;6.57;;;5.10;;
15307;SDS011;7755;52.208;6.964;2022-07-29T21:14:36;5.57;;;4.70;;
15307;SDS011;7755;52.208;6.964;2022-07-29T21:18:58;7.17;;;4.50;;
15307;SDS011;7755;52.208;6.964;2022-07-29T21:23:03;4.33;;;3.93;;
15307;SDS011;7755;52.208;6.964;2022-07-29T21:27:04;4.37;;;3.97;;
15307;SDS011;7755;52.208;6.964;2022-07-29T21:31:24;4.70;;;4.30;;
15307;SDS011;7755;52.208;6.964;2022-07-29T21:35:28;7.77;;;5.80;;
15307;SDS011;7755;52.208;6.964;2022-07-29T21:39:30;5.00;;;4.60;;
15307;SDS011;7755;52.208;6.964;2022-07-29T21:43:32;4.77;;;4.30;;
15307;SDS011;7755;52.208;6.964;2022-07-29T21:47:34;4.60;;;4.20;;
15307;SDS011;7755;52.208;6.964;2022-07-29T21:51:37;4.97;;;4.47;;
15307;SDS011;7755;52.208;6.964;2022-07-29T21:55:39;4.57;;;4.10;;
15307;SDS011;7755;52.208;6.964;2022-07-29T21:59:41;8.57;;;7.70;;
15307;SDS011;7755;52.208;6.964;2022-07-29T22:03:43;7.63;;;6.17;;
15307;SDS011;7755;52.208;6.964;2022-07-29T22:07:47;6.83;;;4.80;;
15307;SDS011;7755;52.208;6.964;2022-07-29T22:11:49;6.00;;;4.97;;
15307;SDS011;7755;52.208;6.964;2022-07-29T22:15:51;5.27;;;4.77;;
15307;SDS011;7755;52.208;6.964;2022-07-29T22:19:53;5.23;;;4.70;;
15307;SDS011;7755;52.208;6.964;2022-07-29T22:23:56;5.90;;;4.37;;
15307;SDS011;7755;52.208;6.964;2022-07-29T22:27:58;6.93;;;5.73;;
15307;SDS011;7755;52.208;6.964;2022-07-29T22:32:00;8.47;;;7.57;;
15307;SDS011;7755;52.208;6.964;2022-07-29T22:36:02;6.07;;;5.57;;
15307;SDS011;7755;52.208;6.964;2022-07-29T22:40:06;4.77;;;3.93;;
15307;SDS011;7755;52.208;6.964;2022-07-29T22:44:08;4.80;;;4.20;;
15307;SDS011;7755;52.208;6.964;2022-07-29T22:48:10;5.77;;;3.90;;
15307;SDS011;7755;52.208;6.964;2022-07-29T22:52:12;3.37;;;3.17;;
15307;SDS011;7755;52.208;6.964;2022-07-29T22:56:16;5.00;;;4.23;;
15307;SDS011;7755;52.208;6.964;2022-07-29T23:00:18;4.83;;;4.23;;
15307;SDS011;7755;52.208;6.964;2022-07-29T23:04:20;4.17;;;3.77;;
15307;SDS011;7755;52.208;6.964;2022-07-29T23:08:23;3.90;;;3.60;;
15307;SDS011;7755;52.208;6.964;2022-07-29T23:12:26;4.67;;;4.23;;
15307;SDS011;7755;52.208;6.964;2022-07-29T23:16:28;4.63;;;4.23;;
15307;SDS011;7755;52.208;6.964;2022-07-29T23:20:29;7.03;;;6.37;;
15307;SDS011;7755;52.208;6.964;2022-07-29T23:24:31;5.63;;;5.23;;
15307;SDS011;7755;52.208;6.964;2022-07-29T23:28:35;6.17;;;4.50;;
15307;SDS011;7755;52.208;6.964;2022-07-29T23:32:36;5.13;;;4.23;;
15307;SDS011;7755;52.208;6.964;2022-07-29T23:36:38;4.33;;;3.93;;
15307;SDS011;7755;52.208;6.964;2022-07-29T23:40:41;5.13;;;4.73;;
15307;SDS011;7755;52.208;6.964;2022-07-29T23:44:44;4.87;;;4.40;;
15307;SDS011;7755;52.208;6.964;2022-07-29T23:48:46;6.97;;;6.27;;
15307;SDS011;7755;52.208;6.964;2022-07-29T23:52:48;5.20;;;4.80;;
15307;SDS011;7755;52.208;6.964;2022-07-29T23:56:50;5.47;;;4.53;;
